sensor_id;sensor_type;location;lat;lon;timestamp;pressure;altitude;pressure_sealevel;temperature;humidity
48848;BME280;36611;51.638;5.784;2023-05-23T00:01:16;101737.38;;;26.12;41.83
48848;BME280;36611;51.638;5.784;2023-05-23T00:03:43;101735.69;;;26.11;42.06
48848;BME280;36611;51.638;5.784;2023-05-23T00:06:10;101733.78;;;26.11;42.00
48848;BME280;36611;51.638;5.784;2023-05-23T00:08:37;101731.03;;;26.11;42.26
48848;BME280;36611;51.638;5.784;2023-05-23T00:11:03;101728.28;;;26.11;42.06
48848;BME280;36611;51.638;5.784;2023-05-23T00:13:30;101729.13;;;26.12;42.14
48848;BME280;36611;51.638;5.784;2023-05-23T00:16:00;101735.69;;;26.11;41.84
48848;BME280;36611;51.638;5.784;2023-05-23T00:18:27;101741.19;;;26.11;42.01
48848;BME280;36611;51.638;5.784;2023-05-23T00:20:55;101738.63;;;26.09;41.81
48848;BME280;36611;51.638;5.784;2023-05-23T00:23:22;101741.38;;;26.09;41.85
48848;BME280;36611;51.638;5.784;2023-05-23T00:25:50;101751.53;;;26.09;42.09
48848;BME280;36611;51.638;5.784;2023-05-23T00:28:19;101744.13;;;26.09;42.00
48848;BME280;36611;51.638;5.784;2023-05-23T00:30:46;101759.78;;;26.09;42.10
48848;BME280;36611;51.638;5.784;2023-05-23T00:33:15;101755.31;;;26.08;42.03
48848;BME280;36611;51.638;5.784;2023-05-23T00:35:42;101758.06;;;26.08;41.96
48848;BME280;36611;51.638;5.784;2023-05-23T00:38:09;101759.97;;;26.07;41.98
48848;BME280;36611;51.638;5.784;2023-05-23T00:40:37;101753.63;;;26.07;41.92
48848;BME280;36611;51.638;5.784;2023-05-23T00:43:03;101765.47;;;26.07;41.81
48848;BME280;36611;51.638;5.784;2023-05-23T00:45:30;101767.38;;;26.07;41.81
48848;BME280;36611;51.638;5.784;2023-05-23T00:47:57;101771.00;;;26.07;42.11
48848;BME280;36611;51.638;5.784;2023-05-23T00:50:26;101764.63;;;26.07;41.84
48848;BME280;36611;51.638;5.784;2023-05-23T00:52:55;101774.78;;;26.06;41.87
48848;BME280;36611;51.638;5.784;2023-05-23T00:55:24;101766.34;;;26.08;41.98
48848;BME280;36611;51.638;5.784;2023-05-23T00:57:53;101754.47;;;26.07;41.92
48848;BME280;36611;51.638;5.784;2023-05-23T01:00:23;101764.63;;;26.07;41.87
48848;BME280;36611;51.638;5.784;2023-05-23T01:02:50;101772.88;;;26.07;41.92
48848;BME280;36611;51.638;5.784;2023-05-23T01:05:19;101767.38;;;26.07;41.82
48848;BME280;36611;51.638;5.784;2023-05-23T01:07:49;101762.06;;;26.05;42.00
48848;BME280;36611;51.638;5.784;2023-05-23T01:10:18;101771.19;;;26.06;41.96
48848;BME280;36611;51.638;5.784;2023-05-23T01:15:42;101755.69;;;26.05;41.97
48848;BME280;36611;51.638;5.784;2023-05-23T01:18:23;101765.00;;;26.04;41.94
48848;BME280;36611;51.638;5.784;2023-05-23T01:20:54;101776.03;;;26.04;41.75
48848;BME280;36611;51.638;5.784;2023-05-23T01:26:17;101775.16;;;26.03;42.16
48848;BME280;36611;51.638;5.784;2023-05-23T01:28:52;101777.06;;;26.03;41.88
48848;BME280;36611;51.638;5.784;2023-05-23T01:31:21;101773.44;;;26.02;42.01
48848;BME280;36611;51.638;5.784;2023-05-23T01:33:50;101773.44;;;26.02;41.91
48848;BME280;36611;51.638;5.784;2023-05-23T01:36:19;101782.56;;;26.03;41.86
48848;BME280;36611;51.638;5.784;2023-05-23T01:38:46;101779.81;;;26.03;41.87
48848;BME280;36611;51.638;5.784;2023-05-23T01:41:12;101784.28;;;26.04;41.98
48848;BME280;36611;51.638;5.784;2023-05-23T01:43:39;101780.84;;;26.02;42.02
48848;BME280;36611;51.638;5.784;2023-05-23T01:46:06;101789.13;;;26.02;41.90
48848;BME280;36611;51.638;5.784;2023-05-23T01:48:33;101790.81;;;26.03;42.00
48848;BME280;36611;51.638;5.784;2023-05-23T01:51:01;101792.72;;;26.02;41.75
48848;BME280;36611;51.638;5.784;2023-05-23T01:53:28;101795.28;;;26.04;42.01
48848;BME280;36611;51.638;5.784;2023-05-23T01:55:57;101799.09;;;26.03;41.76
48848;BME280;36611;51.638;5.784;2023-05-23T01:58:24;101799.09;;;26.03;41.81
48848;BME280;36611;51.638;5.784;2023-05-23T02:00:51;101798.22;;;26.02;41.92
48848;BME280;36611;51.638;5.784;2023-05-23T02:03:18;101805.44;;;26.03;41.82
48848;BME280;36611;51.638;5.784;2023-05-23T02:05:45;101800.13;;;26.02;41.81
48848;BME280;36611;51.638;5.784;2023-05-23T02:08:11;101800.13;;;26.02;41.92
48848;BME280;36611;51.638;5.784;2023-05-23T02:10:38;101811.13;;;26.02;41.87
48848;BME280;36611;51.638;5.784;2023-05-23T02:13:04;101805.63;;;26.02;41.92
48848;BME280;36611;51.638;5.784;2023-05-23T02:15:31;101802.88;;;26.02;41.84
48848;BME280;36611;51.638;5.784;2023-05-23T02:17:58;101802.88;;;26.02;41.86
48848;BME280;36611;51.638;5.784;2023-05-23T02:20:25;101798.38;;;26.01;41.88
48848;BME280;36611;51.638;5.784;2023-05-23T02:22:52;101811.13;;;26.02;41.82
48848;BME280;36611;51.638;5.784;2023-05-23T02:25:18;101801.13;;;26.01;41.94
48848;BME280;36611;51.638;5.784;2023-05-23T02:27:45;101808.53;;;26.00;41.82
48848;BME280;36611;51.638;5.784;2023-05-23T02:30:11;101808.72;;;25.98;42.02
48848;BME280;36611;51.638;5.784;2023-05-23T02:32:38;101818.69;;;26.00;41.71
48848;BME280;36611;51.638;5.784;2023-05-23T02:35:05;101819.53;;;26.00;41.82
48848;BME280;36611;51.638;5.784;2023-05-23T02:37:32;101825.06;;;26.00;41.74
48848;BME280;36611;51.638;5.784;2023-05-23T02:39:58;101829.69;;;26.00;41.71
48848;BME280;36611;51.638;5.784;2023-05-23T02:42:25;101819.75;;;25.98;41.95
48848;BME280;36611;51.638;5.784;2023-05-23T02:44:52;101816.13;;;25.98;41.83
48848;BME280;36611;51.638;5.784;2023-05-23T02:47:18;101822.50;;;25.98;41.86
48848;BME280;36611;51.638;5.784;2023-05-23T02:49:47;101822.50;;;25.98;41.54
48848;BME280;36611;51.638;5.784;2023-05-23T02:52:14;101809.75;;;25.97;41.70
48848;BME280;36611;51.638;5.784;2023-05-23T02:54:40;101821.63;;;25.98;41.77
48848;BME280;36611;51.638;5.784;2023-05-23T02:57:07;101814.41;;;25.97;41.71
48848;BME280;36611;51.638;5.784;2023-05-23T02:59:36;101816.31;;;25.96;41.69
48848;BME280;36611;51.638;5.784;2023-05-23T03:02:03;101817.16;;;25.97;41.25
48848;BME280;36611;51.638;5.784;2023-05-23T03:04:30;101811.66;;;25.97;41.79
48848;BME280;36611;51.638;5.784;2023-05-23T03:06:56;101822.69;;;25.97;41.60
48848;BME280;36611;51.638;5.784;2023-05-23T03:09:24;101819.91;;;25.97;41.70
48848;BME280;36611;51.638;5.784;2023-05-23T03:11:52;101820.78;;;25.97;41.76
48848;BME280;36611;51.638;5.784;2023-05-23T03:14:18;101819.06;;;25.96;41.73
48848;BME280;36611;51.638;5.784;2023-05-23T03:16:45;101818.22;;;25.96;41.67
48848;BME280;36611;51.638;5.784;2023-05-23T03:19:12;101825.63;;;25.95;41.66
48848;BME280;36611;51.638;5.784;2023-05-23T03:21:38;101821.81;;;25.96;41.78
48848;BME280;36611;51.638;5.784;2023-05-23T03:24:06;101826.47;;;25.96;41.65
48848;BME280;36611;51.638;5.784;2023-05-23T03:26:33;101828.38;;;25.95;41.54
48848;BME280;36611;51.638;5.784;2023-05-23T03:28:59;101830.06;;;25.96;41.50
48848;BME280;36611;51.638;5.784;2023-05-23T03:31:26;101835.59;;;25.96;41.67
48848;BME280;36611;51.638;5.784;2023-05-23T03:33:52;101840.22;;;25.96;41.80
48848;BME280;36611;51.638;5.784;2023-05-23T03:36:19;101844.03;;;25.95;41.75
48848;BME280;36611;51.638;5.784;2023-05-23T03:38:47;101834.91;;;25.94;41.49
48848;BME280;36611;51.638;5.784;2023-05-23T03:41:14;101837.66;;;25.94;41.81
48848;BME280;36611;51.638;5.784;2023-05-23T03:43:40;101845.91;;;25.94;41.63
48848;BME280;36611;51.638;5.784;2023-05-23T03:46:07;101846.09;;;25.93;41.56
48848;BME280;36611;51.638;5.784;2023-05-23T03:48:34;101842.31;;;25.94;41.80
48848;BME280;36611;51.638;5.784;2023-05-23T03:51:01;101843.16;;;25.94;41.62
48848;BME280;36611;51.638;5.784;2023-05-23T03:53:29;101853.31;;;25.94;41.63
48848;BME280;36611;51.638;5.784;2023-05-23T03:55:55;101852.47;;;25.93;41.10
48848;BME280;36611;51.638;5.784;2023-05-23T03:58:22;101846.97;;;25.93;41.63
48848;BME280;36611;51.638;5.784;2023-05-23T04:00:53;101857.97;;;25.93;41.60
48848;BME280;36611;51.638;5.784;2023-05-23T04:03:20;101849.72;;;25.93;41.62
48848;BME280;36611;51.638;5.784;2023-05-23T04:05:48;101861.75;;;25.92;41.45
48848;BME280;36611;51.638;5.784;2023-05-23T04:08:15;101856.25;;;25.92;41.61
48848;BME280;36611;51.638;5.784;2023-05-23T04:10:43;101855.41;;;25.92;41.69
48848;BME280;36611;51.638;5.784;2023-05-23T04:13:09;101856.25;;;25.92;41.43
48848;BME280;36611;51.638;5.784;2023-05-23T04:15:36;101856.44;;;25.91;41.68
48848;BME280;36611;51.638;5.784;2023-05-23T04:18:06;101857.31;;;25.91;41.61
48848;BME280;36611;51.638;5.784;2023-05-23T04:20:35;101863.00;;;25.90;41.57
48848;BME280;36611;51.638;5.784;2023-05-23T04:23:03;101857.50;;;25.90;41.66
48848;BME280;36611;51.638;5.784;2023-05-23T04:25:33;101864.69;;;25.91;41.46
48848;BME280;36611;51.638;5.784;2023-05-23T04:28:05;101868.50;;;25.90;41.95
48848;BME280;36611;51.638;5.784;2023-05-23T04:30:31;101868.50;;;25.90;41.74
48848;BME280;36611;51.638;5.784;2023-05-23T04:32:58;101868.50;;;25.90;41.69
48848;BME280;36611;51.638;5.784;2023-05-23T04:35:27;101873.16;;;25.89;41.63
48848;BME280;36611;51.638;5.784;2023-05-23T04:37:54;101879.50;;;25.90;41.63
48848;BME280;36611;51.638;5.784;2023-05-23T04:40:24;101889.66;;;25.89;41.60
48848;BME280;36611;51.638;5.784;2023-05-23T04:43:03;101872.28;;;25.89;41.80
48848;BME280;36611;51.638;5.784;2023-05-23T04:45:41;101876.09;;;25.88;41.41
48848;BME280;36611;51.638;5.784;2023-05-23T04:48:28;101879.03;;;25.86;41.60
48848;BME280;36611;51.638;5.784;2023-05-23T04:50:56;101885.38;;;25.87;41.93
48848;BME280;36611;51.638;5.784;2023-05-23T04:53:28;101889.00;;;25.87;41.63
48848;BME280;36611;51.638;5.784;2023-05-23T04:55:56;101901.91;;;25.87;41.41
48848;BME280;36611;51.638;5.784;2023-05-23T04:58:23;101905.50;;;25.87;41.61
48848;BME280;36611;51.638;5.784;2023-05-23T05:00:53;101895.53;;;25.86;41.47
48848;BME280;36611;51.638;5.784;2023-05-23T05:03:20;101909.28;;;25.86;41.66
48848;BME280;36611;51.638;5.784;2023-05-23T05:05:47;101906.53;;;25.86;41.48
48848;BME280;36611;51.638;5.784;2023-05-23T05:08:14;101909.28;;;25.86;41.61
48848;BME280;36611;51.638;5.784;2023-05-23T05:10:41;101904.81;;;25.85;41.76
48848;BME280;36611;51.638;5.784;2023-05-23T05:13:09;101910.34;;;25.85;41.37
48848;BME280;36611;51.638;5.784;2023-05-23T05:15:42;101915.84;;;25.85;41.53
48848;BME280;36611;51.638;5.784;2023-05-23T05:18:09;101920.47;;;25.85;41.52
48848;BME280;36611;51.638;5.784;2023-05-23T05:20:38;101913.09;;;25.85;41.64
48848;BME280;36611;51.638;5.784;2023-05-23T05:23:05;101923.25;;;25.85;41.76
48848;BME280;36611;51.638;5.784;2023-05-23T05:25:34;101929.59;;;25.85;41.59
48848;BME280;36611;51.638;5.784;2023-05-23T05:28:01;101932.34;;;25.85;41.65
48848;BME280;36611;51.638;5.784;2023-05-23T05:30:35;101923.25;;;25.85;41.58
48848;BME280;36611;51.638;5.784;2023-05-23T05:33:04;101915.84;;;25.85;41.32
48848;BME280;36611;51.638;5.784;2023-05-23T05:35:31;101928.75;;;25.85;41.49
48848;BME280;36611;51.638;5.784;2023-05-23T05:37:59;101935.09;;;25.85;41.56
48848;BME280;36611;51.638;5.784;2023-05-23T05:40:25;101937.84;;;25.85;41.48
48848;BME280;36611;51.638;5.784;2023-05-23T05:42:52;101938.91;;;25.84;41.76
48848;BME280;36611;51.638;5.784;2023-05-23T05:45:20;101944.41;;;25.84;41.41
48848;BME280;36611;51.638;5.784;2023-05-23T05:47:47;101944.41;;;25.84;41.58
48848;BME280;36611;51.638;5.784;2023-05-23T05:50:17;101953.69;;;25.83;41.65
48848;BME280;36611;51.638;5.784;2023-05-23T05:52:45;101958.34;;;25.83;41.54
48848;BME280;36611;51.638;5.784;2023-05-23T05:55:12;101952.84;;;25.83;41.36
48848;BME280;36611;51.638;5.784;2023-05-23T05:57:43;101960.22;;;25.82;41.53
48848;BME280;36611;51.638;5.784;2023-05-23T06:00:12;101966.59;;;25.83;41.39
48848;BME280;36611;51.638;5.784;2023-05-23T06:02:44;101967.63;;;25.82;41.30
48848;BME280;36611;51.638;5.784;2023-05-23T06:05:27;101964.22;;;25.80;41.42
48848;BME280;36611;51.638;5.784;2023-05-23T06:07:54;101978.81;;;25.80;41.20
48848;BME280;36611;51.638;5.784;2023-05-23T06:10:20;101978.81;;;25.80;41.54
48848;BME280;36611;51.638;5.784;2023-05-23T06:12:49;101977.09;;;25.79;41.31
48848;BME280;36611;51.638;5.784;2023-05-23T06:15:16;101979.00;;;25.79;41.45
48848;BME280;36611;51.638;5.784;2023-05-23T06:17:43;101979.00;;;25.79;41.51
48848;BME280;36611;51.638;5.784;2023-05-23T06:20:10;101989.16;;;25.78;41.41
48848;BME280;36611;51.638;5.784;2023-05-23T06:22:41;101972.81;;;25.77;41.32
48848;BME280;36611;51.638;5.784;2023-05-23T06:25:08;101987.44;;;25.77;41.53
48848;BME280;36611;51.638;5.784;2023-05-23T06:27:35;101994.84;;;25.77;41.54
48848;BME280;36611;51.638;5.784;2023-05-23T06:30:04;101994.84;;;25.77;41.65
48848;BME280;36611;51.638;5.784;2023-05-23T06:32:31;101998.63;;;25.76;41.36
48848;BME280;36611;51.638;5.784;2023-05-23T06:34:57;102001.38;;;25.76;41.36
48848;BME280;36611;51.638;5.784;2023-05-23T06:37:25;101995.88;;;25.76;41.51
48848;BME280;36611;51.638;5.784;2023-05-23T06:39:51;102001.38;;;25.76;41.64
48848;BME280;36611;51.638;5.784;2023-05-23T06:42:18;102005.00;;;25.76;41.30
48848;BME280;36611;51.638;5.784;2023-05-23T06:44:54;102004.13;;;25.76;41.57
48848;BME280;36611;51.638;5.784;2023-05-23T06:47:22;102009.63;;;25.76;41.53
48848;BME280;36611;51.638;5.784;2023-05-23T06:49:49;102006.88;;;25.76;41.42
48848;BME280;36611;51.638;5.784;2023-05-23T06:52:15;102017.91;;;25.76;41.44
48848;BME280;36611;51.638;5.784;2023-05-23T06:54:42;102018.75;;;25.76;41.63
48848;BME280;36611;51.638;5.784;2023-05-23T06:57:09;102024.25;;;25.76;41.46
48848;BME280;36611;51.638;5.784;2023-05-23T06:59:36;102023.22;;;25.77;41.10
48848;BME280;36611;51.638;5.784;2023-05-23T07:02:03;102021.50;;;25.76;41.52
48848;BME280;36611;51.638;5.784;2023-05-23T07:04:30;102028.72;;;25.77;41.40
48848;BME280;36611;51.638;5.784;2023-05-23T07:07:01;102038.88;;;25.77;41.52
48848;BME280;36611;51.638;5.784;2023-05-23T07:09:27;102035.25;;;25.76;41.45
48848;BME280;36611;51.638;5.784;2023-05-23T07:12:05;102031.66;;;25.76;41.34
48848;BME280;36611;51.638;5.784;2023-05-23T07:14:34;102037.16;;;25.76;41.59
48848;BME280;36611;51.638;5.784;2023-05-23T07:17:04;102042.66;;;25.76;41.64
48848;BME280;36611;51.638;5.784;2023-05-23T07:19:32;102042.66;;;25.76;41.63
48848;BME280;36611;51.638;5.784;2023-05-23T07:21:59;102056.25;;;25.77;41.36
48848;BME280;36611;51.638;5.784;2023-05-23T07:24:28;102049.88;;;25.77;41.40
48848;BME280;36611;51.638;5.784;2023-05-23T07:26:55;102050.75;;;25.77;41.69
48848;BME280;36611;51.638;5.784;2023-05-23T07:29:23;102051.59;;;25.78;41.35
48848;BME280;36611;51.638;5.784;2023-05-23T07:31:51;102057.09;;;25.78;41.37
48848;BME280;36611;51.638;5.784;2023-05-23T07:34:20;102045.22;;;25.77;41.17
48848;BME280;36611;51.638;5.784;2023-05-23T07:36:54;102054.34;;;25.78;41.59
48848;BME280;36611;51.638;5.784;2023-05-23T07:39:23;102050.75;;;25.77;41.54
48848;BME280;36611;51.638;5.784;2023-05-23T07:41:51;102056.06;;;25.79;41.23
48848;BME280;36611;51.638;5.784;2023-05-23T07:44:18;102057.09;;;25.78;41.29
48848;BME280;36611;51.638;5.784;2023-05-23T07:46:49;102058.81;;;25.79;41.31
48848;BME280;36611;51.638;5.784;2023-05-23T07:49:16;102056.91;;;25.79;41.23
48848;BME280;36611;51.638;5.784;2023-05-23T07:51:42;102060.72;;;25.78;41.44
48848;BME280;36611;51.638;5.784;2023-05-23T07:54:09;102064.31;;;25.79;41.73
48848;BME280;36611;51.638;5.784;2023-05-23T07:56:38;102062.41;;;25.79;41.20
48848;BME280;36611;51.638;5.784;2023-05-23T07:59:05;102072.41;;;25.80;41.34
48848;BME280;36611;51.638;5.784;2023-05-23T08:01:34;102072.56;;;25.79;41.55
48848;BME280;36611;51.638;5.784;2023-05-23T08:04:03;102073.25;;;25.81;41.30
48848;BME280;36611;51.638;5.784;2023-05-23T08:06:33;102069.63;;;25.80;41.56
48848;BME280;36611;51.638;5.784;2023-05-23T08:09:04;102072.41;;;25.80;41.57
48848;BME280;36611;51.638;5.784;2023-05-23T08:11:34;102077.91;;;25.80;41.10
48848;BME280;36611;51.638;5.784;2023-05-23T08:14:01;102084.25;;;25.81;41.39
48848;BME280;36611;51.638;5.784;2023-05-23T08:16:37;102087.88;;;25.81;41.28
48848;BME280;36611;51.638;5.784;2023-05-23T08:19:15;102077.91;;;25.80;41.50
48848;BME280;36611;51.638;5.784;2023-05-23T08:21:42;102090.63;;;25.81;41.34
48848;BME280;36611;51.638;5.784;2023-05-23T08:24:09;102089.75;;;25.81;41.45
48848;BME280;36611;51.638;5.784;2023-05-23T08:26:38;102087.00;;;25.81;41.30
48848;BME280;36611;51.638;5.784;2023-05-23T08:29:08;102096.97;;;25.82;41.34
48848;BME280;36611;51.638;5.784;2023-05-23T08:31:35;102100.59;;;25.82;41.09
48848;BME280;36611;51.638;5.784;2023-05-23T08:34:05;102103.34;;;25.82;41.20
48848;BME280;36611;51.638;5.784;2023-05-23T08:36:33;102103.34;;;25.82;41.03
48848;BME280;36611;51.638;5.784;2023-05-23T08:39:02;102094.22;;;25.82;41.19
48848;BME280;36611;51.638;5.784;2023-05-23T08:41:34;102096.81;;;25.83;41.54
48848;BME280;36611;51.638;5.784;2023-05-23T08:44:05;102095.09;;;25.82;41.10
48848;BME280;36611;51.638;5.784;2023-05-23T08:46:45;102101.44;;;25.83;41.11
48848;BME280;36611;51.638;5.784;2023-05-23T08:49:21;102097.84;;;25.82;41.22
48848;BME280;36611;51.638;5.784;2023-05-23T08:51:51;102104.03;;;25.84;41.23
48848;BME280;36611;51.638;5.784;2023-05-23T08:54:20;102106.09;;;25.82;41.08
48848;BME280;36611;51.638;5.784;2023-05-23T08:56:48;102108.66;;;25.84;41.15
48848;BME280;36611;51.638;5.784;2023-05-23T08:59:15;102106.78;;;25.84;41.15
48848;BME280;36611;51.638;5.784;2023-05-23T09:01:42;102105.91;;;25.84;41.27
48848;BME280;36611;51.638;5.784;2023-05-23T09:04:11;102119.69;;;25.84;41.05
48848;BME280;36611;51.638;5.784;2023-05-23T09:06:48;102118.81;;;25.83;41.08
48848;BME280;36611;51.638;5.784;2023-05-23T09:09:15;102123.28;;;25.84;40.97
48848;BME280;36611;51.638;5.784;2023-05-23T09:11:42;102137.91;;;25.85;41.16
48848;BME280;36611;51.638;5.784;2023-05-23T09:14:12;102132.41;;;25.85;40.72
48848;BME280;36611;51.638;5.784;2023-05-23T09:16:45;102125.00;;;25.85;41.07
48848;BME280;36611;51.638;5.784;2023-05-23T09:19:14;102130.50;;;25.85;41.05
48848;BME280;36611;51.638;5.784;2023-05-23T09:21:48;102123.28;;;25.84;41.09
48848;BME280;36611;51.638;5.784;2023-05-23T09:24:34;102127.75;;;25.85;41.07
48848;BME280;36611;51.638;5.784;2023-05-23T09:27:04;102136.53;;;25.81;41.36
48848;BME280;36611;51.638;5.784;2023-05-23T09:29:37;102129.16;;;25.81;41.00
48848;BME280;36611;51.638;5.784;2023-05-23T09:32:12;102127.94;;;25.84;40.97
48848;BME280;36611;51.638;5.784;2023-05-23T09:34:41;102135.34;;;25.83;41.03
48848;BME280;36611;51.638;5.784;2023-05-23T09:37:10;102131.53;;;25.84;40.90
48848;BME280;36611;51.638;5.784;2023-05-23T09:39:38;102131.53;;;25.84;40.82
48848;BME280;36611;51.638;5.784;2023-05-23T09:42:05;102139.81;;;25.84;40.79
48848;BME280;36611;51.638;5.784;2023-05-23T09:44:40;102137.91;;;25.85;40.83
48848;BME280;36611;51.638;5.784;2023-05-23T09:47:08;102137.06;;;25.84;40.52
48848;BME280;36611;51.638;5.784;2023-05-23T09:49:37;102133.25;;;25.85;41.02
48848;BME280;36611;51.638;5.784;2023-05-23T09:52:04;102137.06;;;25.84;40.94
48848;BME280;36611;51.638;5.784;2023-05-23T09:54:31;102140.66;;;25.85;40.87
48848;BME280;36611;51.638;5.784;2023-05-23T09:56:58;102131.38;;;25.86;40.81
48848;BME280;36611;51.638;5.784;2023-05-23T09:59:50;102133.94;;;25.87;40.83
48848;BME280;36611;51.638;5.784;2023-05-23T10:05:30;102134.97;;;25.86;40.86
48848;BME280;36611;51.638;5.784;2023-05-23T10:08:00;102146.16;;;25.85;40.67
48848;BME280;36611;51.638;5.784;2023-05-23T10:10:30;102141.53;;;25.85;40.78
48848;BME280;36611;51.638;5.784;2023-05-23T10:12:59;102141.53;;;25.85;40.79
48848;BME280;36611;51.638;5.784;2023-05-23T10:15:30;102144.28;;;25.85;40.69
48848;BME280;36611;51.638;5.784;2023-05-23T10:18:19;102146.84;;;25.87;40.74
48848;BME280;36611;51.638;5.784;2023-05-23T10:20:48;102147.03;;;25.85;40.76
48848;BME280;36611;51.638;5.784;2023-05-23T10:23:15;102148.91;;;25.85;40.54
48848;BME280;36611;51.638;5.784;2023-05-23T10:25:43;102153.38;;;25.86;40.57
48848;BME280;36611;51.638;5.784;2023-05-23T10:28:10;102156.13;;;25.86;40.70
48848;BME280;36611;51.638;5.784;2023-05-23T10:30:38;102155.09;;;25.87;40.65
48848;BME280;36611;51.638;5.784;2023-05-23T10:33:07;102161.66;;;25.86;40.60
48848;BME280;36611;51.638;5.784;2023-05-23T10:35:59;102165.06;;;25.88;40.74
48848;BME280;36611;51.638;5.784;2023-05-23T10:41:08;102157.00;;;25.86;40.54
48848;BME280;36611;51.638;5.784;2023-05-23T10:43:54;102153.38;;;25.86;40.50
48848;BME280;36611;51.638;5.784;2023-05-23T10:46:22;102154.41;;;25.85;40.35
48848;BME280;36611;51.638;5.784;2023-05-23T10:48:53;102151.50;;;25.86;40.65
48848;BME280;36611;51.638;5.784;2023-05-23T10:51:22;102149.78;;;25.85;40.49
48848;BME280;36611;51.638;5.784;2023-05-23T10:53:53;102151.50;;;25.86;40.48
48848;BME280;36611;51.638;5.784;2023-05-23T10:56:21;102141.53;;;25.85;40.34
48848;BME280;36611;51.638;5.784;2023-05-23T10:58:53;102155.09;;;25.87;40.58
48848;BME280;36611;51.638;5.784;2023-05-23T11:01:20;102155.09;;;25.87;40.34
48848;BME280;36611;51.638;5.784;2023-05-23T11:06:37;102145.81;;;25.88;40.34
48848;BME280;36611;51.638;5.784;2023-05-23T11:09:15;102148.75;;;25.86;40.35
48848;BME280;36611;51.638;5.784;2023-05-23T11:12:04;102144.94;;;25.87;40.41
48848;BME280;36611;51.638;5.784;2023-05-23T11:17:28;102135.84;;;25.87;40.21
48848;BME280;36611;51.638;5.784;2023-05-23T11:20:03;102148.75;;;25.86;40.23
48848;BME280;36611;51.638;5.784;2023-05-23T11:22:34;102145.13;;;25.86;40.29
48848;BME280;36611;51.638;5.784;2023-05-23T11:25:05;102143.06;;;25.88;40.24
48848;BME280;36611;51.638;5.784;2023-05-23T11:27:37;102130.16;;;25.88;40.18
48848;BME280;36611;51.638;5.784;2023-05-23T11:30:11;102138.41;;;25.88;40.28
48848;BME280;36611;51.638;5.784;2023-05-23T11:32:42;102153.22;;;25.87;40.47
48848;BME280;36611;51.638;5.784;2023-05-23T11:35:15;102145.97;;;25.86;40.22
48848;BME280;36611;51.638;5.784;2023-05-23T11:37:42;102149.41;;;25.88;40.28
48848;BME280;36611;51.638;5.784;2023-05-23T11:40:35;102149.41;;;25.88;40.20
48848;BME280;36611;51.638;5.784;2023-05-23T11:43:04;102153.22;;;25.87;40.25
48848;BME280;36611;51.638;5.784;2023-05-23T11:45:32;102144.09;;;25.87;40.25
48848;BME280;36611;51.638;5.784;2023-05-23T11:48:10;102147.53;;;25.89;40.10
48848;BME280;36611;51.638;5.784;2023-05-23T11:50:50;102151.31;;;25.88;40.36
48848;BME280;36611;51.638;5.784;2023-05-23T11:53:19;102150.47;;;25.87;40.34
48848;BME280;36611;51.638;5.784;2023-05-23T11:55:51;102157.69;;;25.88;40.39
48848;BME280;36611;51.638;5.784;2023-05-23T11:58:25;102144.78;;;25.89;40.20
48848;BME280;36611;51.638;5.784;2023-05-23T12:01:04;102153.03;;;25.89;40.17
48848;BME280;36611;51.638;5.784;2023-05-23T12:03:33;102152.16;;;25.88;40.38
48848;BME280;36611;51.638;5.784;2023-05-23T12:06:00;102154.91;;;25.88;40.29
48848;BME280;36611;51.638;5.784;2023-05-23T12:08:27;102150.28;;;25.89;40.40
48848;BME280;36611;51.638;5.784;2023-05-23T12:10:58;102158.34;;;25.90;40.05
48848;BME280;36611;51.638;5.784;2023-05-23T12:13:27;102152.00;;;25.90;40.00
48848;BME280;36611;51.638;5.784;2023-05-23T12:15:55;102157.50;;;25.90;39.93
48848;BME280;36611;51.638;5.784;2023-05-23T12:18:22;102166.63;;;25.90;40.13
48848;BME280;36611;51.638;5.784;2023-05-23T12:20:49;102161.09;;;25.90;40.37
48848;BME280;36611;51.638;5.784;2023-05-23T12:23:23;102160.94;;;25.92;40.21
48848;BME280;36611;51.638;5.784;2023-05-23T12:25:54;102165.56;;;25.91;39.75
48848;BME280;36611;51.638;5.784;2023-05-23T12:28:36;102163.84;;;25.90;39.93
48848;BME280;36611;51.638;5.784;2023-05-23T12:31:16;102170.03;;;25.92;40.31
48848;BME280;36611;51.638;5.784;2023-05-23T12:33:44;102166.63;;;25.90;40.20
48848;BME280;36611;51.638;5.784;2023-05-23T12:36:11;102172.97;;;25.91;40.03
48848;BME280;36611;51.638;5.784;2023-05-23T12:38:38;102172.97;;;25.91;40.21
48848;BME280;36611;51.638;5.784;2023-05-23T12:41:10;102172.13;;;25.90;40.19
48848;BME280;36611;51.638;5.784;2023-05-23T12:43:38;102161.97;;;25.91;40.21
48848;BME280;36611;51.638;5.784;2023-05-23T12:46:06;102173.84;;;25.91;40.26
48848;BME280;36611;51.638;5.784;2023-05-23T12:48:33;102175.56;;;25.92;39.94
48848;BME280;36611;51.638;5.784;2023-05-23T12:51:00;102173.84;;;25.91;39.92
48848;BME280;36611;51.638;5.784;2023-05-23T12:53:28;102183.81;;;25.92;40.00
48848;BME280;36611;51.638;5.784;2023-05-23T12:55:55;102175.56;;;25.92;40.13
48848;BME280;36611;51.638;5.784;2023-05-23T12:58:21;102186.56;;;25.92;39.84
48848;BME280;36611;51.638;5.784;2023-05-23T13:00:48;102181.91;;;25.93;39.82
48848;BME280;36611;51.638;5.784;2023-05-23T13:03:16;102185.53;;;25.93;39.88
48848;BME280;36611;51.638;5.784;2023-05-23T13:05:43;102193.78;;;25.93;39.91
48848;BME280;36611;51.638;5.784;2023-05-23T13:08:10;102187.41;;;25.93;39.85
48848;BME280;36611;51.638;5.784;2023-05-23T13:10:38;102184.66;;;25.93;39.83
48848;BME280;36611;51.638;5.784;2023-05-23T13:13:04;102186.38;;;25.94;39.92
48848;BME280;36611;51.638;5.784;2023-05-23T13:15:31;102182.78;;;25.93;39.72
48848;BME280;36611;51.638;5.784;2023-05-23T13:17:58;102175.38;;;25.94;39.82